sensor_id;sensor_type;location;lat;lon;timestamp;P1;durP1;ratioP1;P2;durP2;ratioP2
22881;SDS011;11608;50.894;5.296;2023-07-31T00:00:48;24.58;;;22.27;;
22881;SDS011;11608;50.894;5.296;2023-07-31T00:03:14;24.75;;;22.30;;
22881;SDS011;11608;50.894;5.296;2023-07-31T00:05:40;24.50;;;21.92;;
22881;SDS011;11608;50.894;5.296;2023-07-31T00:08:06;23.88;;;21.67;;
22881;SDS011;11608;50.894;5.296;2023-07-31T00:10:32;23.90;;;21.90;;
22881;SDS011;11608;50.894;5.296;2023-07-31T00:12:58;24.38;;;22.20;;
22881;SDS011;11608;50.894;5.296;2023-07-31T00:15:24;24.77;;;22.27;;
22881;SDS011;11608;50.894;5.296;2023-07-31T00:17:50;23.83;;;21.52;;
22881;SDS011;11608;50.894;5.296;2023-07-31T00:20:16;22.98;;;21.02;;
22881;SDS011;11608;50.894;5.296;2023-07-31T00:22:42;23.63;;;21.58;;
22881;SDS011;11608;50.894;5.296;2023-07-31T00:25:08;24.20;;;21.95;;
22881;SDS011;11608;50.894;5.296;2023-07-31T00:27:34;23.65;;;21.45;;
22881;SDS011;11608;50.894;5.296;2023-07-31T00:30:00;25.05;;;22.38;;
22881;SDS011;11608;50.894;5.296;2023-07-31T00:32:26;23.17;;;21.13;;
22881;SDS011;11608;50.894;5.296;2023-07-31T00:34:52;23.52;;;21.40;;
22881;SDS011;11608;50.894;5.296;2023-07-31T00:37:18;23.55;;;21.52;;
22881;SDS011;11608;50.894;5.296;2023-07-31T00:39:44;24.45;;;22.00;;
22881;SDS011;11608;50.894;5.296;2023-07-31T00:42:11;24.67;;;22.30;;
22881;SDS011;11608;50.894;5.296;2023-07-31T00:44:37;23.35;;;21.17;;
22881;SDS011;11608;50.894;5.296;2023-07-31T00:47:03;25.13;;;22.45;;
22881;SDS011;11608;50.894;5.296;2023-07-31T00:49:29;25.02;;;22.48;;
22881;SDS011;11608;50.894;5.296;2023-07-31T00:51:55;24.52;;;22.38;;
22881;SDS011;11608;50.894;5.296;2023-07-31T00:54:22;24.15;;;21.77;;
22881;SDS011;11608;50.894;5.296;2023-07-31T00:56:48;23.98;;;21.98;;
22881;SDS011;11608;50.894;5.296;2023-07-31T00:59:16;23.08;;;21.08;;
22881;SDS011;11608;50.894;5.296;2023-07-31T01:01:43;24.52;;;22.27;;
22881;SDS011;11608;50.894;5.296;2023-07-31T01:04:10;23.92;;;22.02;;
22881;SDS011;11608;50.894;5.296;2023-07-31T01:12:13;25.55;;;22.63;;
22881;SDS011;11608;50.894;5.296;2023-07-31T01:14:40;24.15;;;22.08;;
22881;SDS011;11608;50.894;5.296;2023-07-31T01:17:06;23.50;;;21.67;;
22881;SDS011;11608;50.894;5.296;2023-07-31T01:19:32;23.77;;;21.75;;
22881;SDS011;11608;50.894;5.296;2023-07-31T01:27:30;24.15;;;21.85;;
22881;SDS011;11608;50.894;5.296;2023-07-31T01:29:59;23.52;;;21.48;;
22881;SDS011;11608;50.894;5.296;2023-07-31T01:32:26;23.77;;;21.73;;
22881;SDS011;11608;50.894;5.296;2023-07-31T01:34:54;22.42;;;20.52;;
22881;SDS011;11608;50.894;5.296;2023-07-31T01:37:20;24.42;;;22.00;;
22881;SDS011;11608;50.894;5.296;2023-07-31T01:39:46;24.15;;;21.77;;
22881;SDS011;11608;50.894;5.296;2023-07-31T01:42:12;23.02;;;21.13;;
22881;SDS011;11608;50.894;5.296;2023-07-31T01:44:39;23.27;;;21.30;;
22881;SDS011;11608;50.894;5.296;2023-07-31T01:47:05;23.75;;;21.70;;
22881;SDS011;11608;50.894;5.296;2023-07-31T01:49:31;24.10;;;21.55;;
22881;SDS011;11608;50.894;5.296;2023-07-31T01:51:57;23.77;;;21.77;;
22881;SDS011;11608;50.894;5.296;2023-07-31T01:54:23;24.85;;;22.45;;
22881;SDS011;11608;50.894;5.296;2023-07-31T01:56:49;24.50;;;22.20;;
22881;SDS011;11608;50.894;5.296;2023-07-31T01:59:15;24.55;;;22.35;;
22881;SDS011;11608;50.894;5.296;2023-07-31T02:01:41;24.50;;;22.02;;
22881;SDS011;11608;50.894;5.296;2023-07-31T02:04:07;23.95;;;21.88;;
22881;SDS011;11608;50.894;5.296;2023-07-31T02:06:33;24.95;;;22.65;;
22881;SDS011;11608;50.894;5.296;2023-07-31T02:08:59;24.92;;;22.38;;
22881;SDS011;11608;50.894;5.296;2023-07-31T02:11:25;25.40;;;23.00;;
22881;SDS011;11608;50.894;5.296;2023-07-31T02:13:51;23.70;;;21.55;;
22881;SDS011;11608;50.894;5.296;2023-07-31T02:16:17;24.02;;;22.08;;
22881;SDS011;11608;50.894;5.296;2023-07-31T02:18:43;25.02;;;22.63;;
22881;SDS011;11608;50.894;5.296;2023-07-31T02:21:09;24.65;;;22.48;;
22881;SDS011;11608;50.894;5.296;2023-07-31T02:23:35;23.92;;;21.88;;
22881;SDS011;11608;50.894;5.296;2023-07-31T02:26:01;23.50;;;21.45;;
22881;SDS011;11608;50.894;5.296;2023-07-31T02:28:28;23.42;;;21.52;;
22881;SDS011;11608;50.894;5.296;2023-07-31T02:30:54;24.30;;;22.25;;
22881;SDS011;11608;50.894;5.296;2023-07-31T02:33:20;25.33;;;23.05;;
22881;SDS011;11608;50.894;5.296;2023-07-31T02:35:46;24.05;;;21.88;;
22881;SDS011;11608;50.894;5.296;2023-07-31T02:38:12;23.95;;;21.92;;
22881;SDS011;11608;50.894;5.296;2023-07-31T02:40:41;24.77;;;22.40;;
22881;SDS011;11608;50.894;5.296;2023-07-31T02:43:07;22.95;;;21.13;;
22881;SDS011;11608;50.894;5.296;2023-07-31T02:45:34;23.80;;;21.73;;
22881;SDS011;11608;50.894;5.296;2023-07-31T02:48:00;23.50;;;21.60;;
22881;SDS011;11608;50.894;5.296;2023-07-31T02:50:26;23.75;;;21.80;;
22881;SDS011;11608;50.894;5.296;2023-07-31T02:52:55;24.88;;;22.42;;
22881;SDS011;11608;50.894;5.296;2023-07-31T02:55:21;23.65;;;21.75;;
22881;SDS011;11608;50.894;5.296;2023-07-31T02:57:47;23.70;;;21.55;;
22881;SDS011;11608;50.894;5.296;2023-07-31T03:00:13;24.70;;;22.55;;
22881;SDS011;11608;50.894;5.296;2023-07-31T03:02:39;24.65;;;22.45;;
22881;SDS011;11608;50.894;5.296;2023-07-31T03:05:05;24.10;;;21.85;;
22881;SDS011;11608;50.894;5.296;2023-07-31T03:07:31;23.75;;;21.83;;
22881;SDS011;11608;50.894;5.296;2023-07-31T03:09:57;24.48;;;22.25;;
22881;SDS011;11608;50.894;5.296;2023-07-31T03:12:23;24.35;;;22.20;;
22881;SDS011;11608;50.894;5.296;2023-07-31T03:14:49;23.55;;;21.80;;
22881;SDS011;11608;50.894;5.296;2023-07-31T03:17:15;24.65;;;22.33;;
22881;SDS011;11608;50.894;5.296;2023-07-31T03:19:41;25.60;;;23.35;;
22881;SDS011;11608;50.894;5.296;2023-07-31T03:22:07;24.98;;;22.67;;
22881;SDS011;11608;50.894;5.296;2023-07-31T03:24:33;24.00;;;22.17;;
22881;SDS011;11608;50.894;5.296;2023-07-31T03:26:59;24.52;;;22.45;;
22881;SDS011;11608;50.894;5.296;2023-07-31T03:29:25;24.13;;;22.00;;
22881;SDS011;11608;50.894;5.296;2023-07-31T03:31:51;24.00;;;21.98;;
22881;SDS011;11608;50.894;5.296;2023-07-31T03:34:17;22.70;;;20.73;;
22881;SDS011;11608;50.894;5.296;2023-07-31T03:36:43;24.73;;;22.58;;
22881;SDS011;11608;50.894;5.296;2023-07-31T03:39:09;22.58;;;20.88;;
22881;SDS011;11608;50.894;5.296;2023-07-31T03:41:35;23.58;;;21.58;;
22881;SDS011;11608;50.894;5.296;2023-07-31T03:44:01;24.15;;;22.25;;
22881;SDS011;11608;50.894;5.296;2023-07-31T03:46:28;23.48;;;21.42;;
22881;SDS011;11608;50.894;5.296;2023-07-31T03:48:54;23.33;;;21.33;;
22881;SDS011;11608;50.894;5.296;2023-07-31T03:51:20;23.73;;;21.85;;
22881;SDS011;11608;50.894;5.296;2023-07-31T03:53:46;23.02;;;21.23;;
22881;SDS011;11608;50.894;5.296;2023-07-31T03:56:12;22.13;;;20.52;;
22881;SDS011;11608;50.894;5.296;2023-07-31T03:58:38;22.58;;;20.88;;
22881;SDS011;11608;50.894;5.296;2023-07-31T04:01:04;23.40;;;21.50;;
22881;SDS011;11608;50.894;5.296;2023-07-31T04:03:30;23.13;;;21.42;;
22881;SDS011;11608;50.894;5.296;2023-07-31T04:05:56;22.77;;;20.88;;
22881;SDS011;11608;50.894;5.296;2023-07-31T04:08:22;22.92;;;21.13;;
22881;SDS011;11608;50.894;5.296;2023-07-31T04:10:48;22.75;;;20.98;;
22881;SDS011;11608;50.894;5.296;2023-07-31T04:13:14;23.30;;;21.30;;
22881;SDS011;11608;50.894;5.296;2023-07-31T04:15:40;22.42;;;20.63;;
22881;SDS011;11608;50.894;5.296;2023-07-31T04:18:07;22.42;;;20.63;;
22881;SDS011;11608;50.894;5.296;2023-07-31T04:20:33;22.20;;;20.40;;
22881;SDS011;11608;50.894;5.296;2023-07-31T04:22:59;21.90;;;20.20;;
22881;SDS011;11608;50.894;5.296;2023-07-31T04:25:25;22.08;;;20.38;;
22881;SDS011;11608;50.894;5.296;2023-07-31T04:27:51;21.50;;;19.83;;
22881;SDS011;11608;50.894;5.296;2023-07-31T04:30:17;21.67;;;20.08;;
22881;SDS011;11608;50.894;5.296;2023-07-31T04:32:43;22.13;;;20.25;;
22881;SDS011;11608;50.894;5.296;2023-07-31T04:35:09;21.80;;;19.90;;
22881;SDS011;11608;50.894;5.296;2023-07-31T04:37:35;21.20;;;19.60;;
22881;SDS011;11608;50.894;5.296;2023-07-31T04:40:01;23.00;;;20.85;;
22881;SDS011;11608;50.894;5.296;2023-07-31T04:42:27;22.75;;;20.85;;
22881;SDS011;11608;50.894;5.296;2023-07-31T04:44:53;21.92;;;20.00;;
22881;SDS011;11608;50.894;5.296;2023-07-31T04:47:19;22.52;;;20.63;;
22881;SDS011;11608;50.894;5.296;2023-07-31T04:49:45;22.70;;;20.70;;
22881;SDS011;11608;50.894;5.296;2023-07-31T04:52:11;22.38;;;20.63;;
22881;SDS011;11608;50.894;5.296;2023-07-31T04:54:37;21.65;;;19.95;;
22881;SDS011;11608;50.894;5.296;2023-07-31T04:57:03;22.25;;;20.30;;
22881;SDS011;11608;50.894;5.296;2023-07-31T04:59:29;22.45;;;20.65;;
22881;SDS011;11608;50.894;5.296;2023-07-31T05:01:56;22.67;;;20.85;;
22881;SDS011;11608;50.894;5.296;2023-07-31T05:04:22;22.50;;;20.67;;
22881;SDS011;11608;50.894;5.296;2023-07-31T05:06:48;22.70;;;20.73;;
22881;SDS011;11608;50.894;5.296;2023-07-31T05:09:14;22.33;;;20.33;;
22881;SDS011;11608;50.894;5.296;2023-07-31T05:11:40;22.27;;;20.52;;
22881;SDS011;11608;50.894;5.296;2023-07-31T05:14:08;22.20;;;20.33;;
22881;SDS011;11608;50.894;5.296;2023-07-31T05:16:34;22.35;;;20.65;;
22881;SDS011;11608;50.894;5.296;2023-07-31T05:19:00;22.48;;;20.60;;
22881;SDS011;11608;50.894;5.296;2023-07-31T05:21:26;22.55;;;20.65;;
22881;SDS011;11608;50.894;5.296;2023-07-31T05:23:52;22.75;;;20.75;;
22881;SDS011;11608;50.894;5.296;2023-07-31T05:26:18;22.25;;;20.35;;
22881;SDS011;11608;50.894;5.296;2023-07-31T05:28:45;22.17;;;20.30;;
22881;SDS011;11608;50.894;5.296;2023-07-31T05:31:11;22.25;;;20.35;;
22881;SDS011;11608;50.894;5.296;2023-07-31T05:33:37;21.33;;;19.73;;
22881;SDS011;11608;50.894;5.296;2023-07-31T05:36:03;22.10;;;20.13;;
22881;SDS011;11608;50.894;5.296;2023-07-31T05:38:29;21.50;;;19.67;;
22881;SDS011;11608;50.894;5.296;2023-07-31T05:40:55;21.63;;;19.90;;
22881;SDS011;11608;50.894;5.296;2023-07-31T05:43:21;21.98;;;20.08;;
22881;SDS011;11608;50.894;5.296;2023-07-31T05:45:47;21.30;;;19.55;;
22881;SDS011;11608;50.894;5.296;2023-07-31T05:48:13;21.73;;;20.10;;
22881;SDS011;11608;50.894;5.296;2023-07-31T05:50:39;21.85;;;20.05;;
22881;SDS011;11608;50.894;5.296;2023-07-31T05:53:05;21.60;;;19.58;;
22881;SDS011;11608;50.894;5.296;2023-07-31T05:55:33;21.83;;;19.63;;
22881;SDS011;11608;50.894;5.296;2023-07-31T05:57:59;20.98;;;19.17;;
22881;SDS011;11608;50.894;5.296;2023-07-31T06:00:25;20.92;;;19.30;;
22881;SDS011;11608;50.894;5.296;2023-07-31T06:02:51;21.13;;;19.27;;
22881;SDS011;11608;50.894;5.296;2023-07-31T06:05:17;20.48;;;18.85;;
22881;SDS011;11608;50.894;5.296;2023-07-31T06:07:43;21.92;;;19.95;;
22881;SDS011;11608;50.894;5.296;2023-07-31T06:10:09;25.77;;;22.77;;
22881;SDS011;11608;50.894;5.296;2023-07-31T06:12:35;23.63;;;21.27;;
22881;SDS011;11608;50.894;5.296;2023-07-31T06:15:02;22.88;;;20.73;;
22881;SDS011;11608;50.894;5.296;2023-07-31T06:17:28;23.30;;;20.85;;
22881;SDS011;11608;50.894;5.296;2023-07-31T06:19:56;22.00;;;19.90;;
22881;SDS011;11608;50.894;5.296;2023-07-31T06:22:22;22.10;;;20.20;;
22881;SDS011;11608;50.894;5.296;2023-07-31T06:24:50;22.30;;;20.38;;
22881;SDS011;11608;50.894;5.296;2023-07-31T06:27:16;22.20;;;20.27;;
22881;SDS011;11608;50.894;5.296;2023-07-31T06:29:42;21.45;;;19.75;;
22881;SDS011;11608;50.894;5.296;2023-07-31T06:32:08;22.02;;;20.23;;
22881;SDS011;11608;50.894;5.296;2023-07-31T06:34:34;21.27;;;19.58;;
22881;SDS011;11608;50.894;5.296;2023-07-31T06:37:00;21.13;;;19.48;;
22881;SDS011;11608;50.894;5.296;2023-07-31T06:39:26;21.95;;;20.25;;
22881;SDS011;11608;50.894;5.296;2023-07-31T06:41:52;21.05;;;19.33;;
22881;SDS011;11608;50.894;5.296;2023-07-31T06:44:18;21.92;;;20.02;;
22881;SDS011;11608;50.894;5.296;2023-07-31T06:46:45;21.92;;;20.13;;
22881;SDS011;11608;50.894;5.296;2023-07-31T06:49:11;20.92;;;19.33;;
22881;SDS011;11608;50.894;5.296;2023-07-31T06:51:37;22.88;;;20.33;;
22881;SDS011;11608;50.894;5.296;2023-07-31T06:54:03;21.77;;;20.08;;
22881;SDS011;11608;50.894;5.296;2023-07-31T06:56:29;21.90;;;19.90;;
22881;SDS011;11608;50.894;5.296;2023-07-31T06:58:55;21.70;;;19.85;;
22881;SDS011;11608;50.894;5.296;2023-07-31T07:01:21;20.88;;;19.15;;
22881;SDS011;11608;50.894;5.296;2023-07-31T07:03:47;21.85;;;20.02;;
22881;SDS011;11608;50.894;5.296;2023-07-31T07:06:15;21.90;;;20.23;;
22881;SDS011;11608;50.894;5.296;2023-07-31T07:08:42;22.77;;;20.73;;
22881;SDS011;11608;50.894;5.296;2023-07-31T07:11:08;22.63;;;20.73;;
22881;SDS011;11608;50.894;5.296;2023-07-31T07:13:34;22.75;;;20.70;;
22881;SDS011;11608;50.894;5.296;2023-07-31T07:16:00;22.38;;;20.60;;
22881;SDS011;11608;50.894;5.296;2023-07-31T07:18:26;22.70;;;20.52;;
22881;SDS011;11608;50.894;5.296;2023-07-31T07:20:53;22.42;;;20.73;;
22881;SDS011;11608;50.894;5.296;2023-07-31T07:23:21;23.30;;;21.55;;
22881;SDS011;11608;50.894;5.296;2023-07-31T07:25:48;22.98;;;21.02;;
22881;SDS011;11608;50.894;5.296;2023-07-31T07:28:16;22.88;;;20.98;;
22881;SDS011;11608;50.894;5.296;2023-07-31T07:30:42;22.90;;;21.00;;
22881;SDS011;11608;50.894;5.296;2023-07-31T07:33:08;22.27;;;20.50;;
22881;SDS011;11608;50.894;5.296;2023-07-31T07:35:34;23.38;;;21.50;;
22881;SDS011;11608;50.894;5.296;2023-07-31T07:38:02;22.20;;;20.38;;
22881;SDS011;11608;50.894;5.296;2023-07-31T07:40:28;21.50;;;19.70;;
22881;SDS011;11608;50.894;5.296;2023-07-31T07:42:54;21.40;;;19.80;;
22881;SDS011;11608;50.894;5.296;2023-07-31T07:45:25;21.80;;;19.63;;
22881;SDS011;11608;50.894;5.296;2023-07-31T07:47:51;21.67;;;19.95;;
22881;SDS011;11608;50.894;5.296;2023-07-31T07:50:17;21.80;;;20.10;;
22881;SDS011;11608;50.894;5.296;2023-07-31T07:52:45;21.42;;;19.55;;
22881;SDS011;11608;50.894;5.296;2023-07-31T07:55:14;21.88;;;20.20;;
22881;SDS011;11608;50.894;5.296;2023-07-31T07:57:40;21.38;;;19.67;;
22881;SDS011;11608;50.894;5.296;2023-07-31T08:00:06;21.77;;;20.08;;
22881;SDS011;11608;50.894;5.296;2023-07-31T08:02:35;21.40;;;19.70;;
22881;SDS011;11608;50.894;5.296;2023-07-31T08:05:01;21.88;;;20.13;;
22881;SDS011;11608;50.894;5.296;2023-07-31T08:07:28;21.80;;;20.10;;
22881;SDS011;11608;50.894;5.296;2023-07-31T08:09:54;21.77;;;19.92;;
22881;SDS011;11608;50.894;5.296;2023-07-31T08:12:25;21.60;;;19.50;;
22881;SDS011;11608;50.894;5.296;2023-07-31T08:14:53;22.40;;;20.67;;
22881;SDS011;11608;50.894;5.296;2023-07-31T08:17:19;22.63;;;20.65;;
22881;SDS011;11608;50.894;5.296;2023-07-31T08:19:45;22.05;;;20.40;;
22881;SDS011;11608;50.894;5.296;2023-07-31T08:22:12;23.00;;;21.08;;
22881;SDS011;11608;50.894;5.296;2023-07-31T08:24:39;22.48;;;20.77;;
22881;SDS011;11608;50.894;5.296;2023-07-31T08:27:05;22.65;;;20.85;;
22881;SDS011;11608;50.894;5.296;2023-07-31T08:29:32;21.80;;;20.17;;
22881;SDS011;11608;50.894;5.296;2023-07-31T08:31:58;21.92;;;20.27;;
22881;SDS011;11608;50.894;5.296;2023-07-31T08:34:24;22.95;;;21.17;;
22881;SDS011;11608;50.894;5.296;2023-07-31T08:36:50;22.48;;;20.60;;
22881;SDS011;11608;50.894;5.296;2023-07-31T08:39:16;22.02;;;20.10;;
22881;SDS011;11608;50.894;5.296;2023-07-31T08:41:42;22.25;;;20.48;;
22881;SDS011;11608;50.894;5.296;2023-07-31T08:44:08;22.17;;;20.52;;
22881;SDS011;11608;50.894;5.296;2023-07-31T08:46:36;22.58;;;20.73;;
22881;SDS011;11608;50.894;5.296;2023-07-31T08:49:04;22.52;;;20.92;;
22881;SDS011;11608;50.894;5.296;2023-07-31T08:51:34;21.30;;;19.70;;
22881;SDS011;11608;50.894;5.296;2023-07-31T08:54:00;23.15;;;21.20;;
22881;SDS011;11608;50.894;5.296;2023-07-31T08:56:29;21.65;;;19.95;;
22881;SDS011;11608;50.894;5.296;2023-07-31T08:58:55;23.05;;;21.15;;
22881;SDS011;11608;50.894;5.296;2023-07-31T09:01:21;22.10;;;20.23;;
22881;SDS011;11608;50.894;5.296;2023-07-31T09:03:47;21.67;;;19.88;;
22881;SDS011;11608;50.894;5.296;2023-07-31T09:06:15;21.50;;;19.60;;
22881;SDS011;11608;50.894;5.296;2023-07-31T09:08:44;22.10;;;20.45;;
22881;SDS011;11608;50.894;5.296;2023-07-31T09:11:12;22.08;;;20.30;;
22881;SDS011;11608;50.894;5.296;2023-07-31T09:13:38;21.90;;;20.10;;
22881;SDS011;11608;50.894;5.296;2023-07-31T09:16:05;23.42;;;21.50;;
22881;SDS011;11608;50.894;5.296;2023-07-31T09:18:37;21.52;;;20.00;;
22881;SDS011;11608;50.894;5.296;2023-07-31T09:21:18;21.42;;;19.92;;
22881;SDS011;11608;50.894;5.296;2023-07-31T09:23:44;21.42;;;19.77;;
22881;SDS011;11608;50.894;5.296;2023-07-31T09:26:11;21.98;;;20.45;;
22881;SDS011;11608;50.894;5.296;2023-07-31T09:28:37;21.92;;;20.25;;
22881;SDS011;11608;50.894;5.296;2023-07-31T09:31:03;20.80;;;19.40;;
22881;SDS011;11608;50.894;5.296;2023-07-31T09:33:29;21.25;;;19.65;;
22881;SDS011;11608;50.894;5.296;2023-07-31T09:35:58;21.25;;;19.75;;
22881;SDS011;11608;50.894;5.296;2023-07-31T09:38:25;21.67;;;20.20;;
22881;SDS011;11608;50.894;5.296;2023-07-31T09:40:51;21.58;;;20.08;;
22881;SDS011;11608;50.894;5.296;2023-07-31T09:43:18;21.05;;;19.65;;
22881;SDS011;11608;50.894;5.296;2023-07-31T09:45:44;20.85;;;19.35;;
22881;SDS011;11608;50.894;5.296;2023-07-31T09:48:17;20.67;;;19.38;;
22881;SDS011;11608;50.894;5.296;2023-07-31T09:50:44;20.65;;;19.35;;
22881;SDS011;11608;50.894;5.296;2023-07-31T09:53:11;21.27;;;19.88;;
22881;SDS011;11608;50.894;5.296;2023-07-31T09:55:37;20.30;;;18.90;;
22881;SDS011;11608;50.894;5.296;2023-07-31T09:58:05;20.38;;;18.92;;
22881;SDS011;11608;50.894;5.296;2023-07-31T10:00:32;20.95;;;19.55;;
22881;SDS011;11608;50.894;5.296;2023-07-31T10:02:59;21.10;;;19.75;;
22881;SDS011;11608;50.894;5.296;2023-07-31T10:05:28;21.02;;;19.52;;
22881;SDS011;11608;50.894;5.296;2023-07-31T10:07:56;21.13;;;19.55;;
22881;SDS011;11608;50.894;5.296;2023-07-31T10:10:23;20.95;;;19.45;;
22881;SDS011;11608;50.894;5.296;2023-07-31T10:12:49;21.15;;;19.65;;
22881;SDS011;11608;50.894;5.296;2023-07-31T10:15:16;21.58;;;19.88;;
22881;SDS011;11608;50.894;5.296;2023-07-31T10:17:42;21.42;;;19.88;;
22881;SDS011;11608;50.894;5.296;2023-07-31T10:20:08;21.75;;;20.35;;
22881;SDS011;11608;50.894;5.296;2023-07-31T10:22:35;22.23;;;20.58;;
22881;SDS011;11608;50.894;5.296;2023-07-31T10:25:01;21.90;;;20.40;;
22881;SDS011;11608;50.894;5.296;2023-07-31T10:27:28;22.00;;;20.50;;
22881;SDS011;11608;50.894;5.296;2023-07-31T10:29:55;21.65;;;19.80;;
22881;SDS011;11608;50.894;5.296;2023-07-31T10:32:22;22.40;;;20.50;;
22881;SDS011;11608;50.894;5.296;2023-07-31T10:34:49;22.35;;;20.75;;
22881;SDS011;11608;50.894;5.296;2023-07-31T10:37:22;22.70;;;20.95;;
22881;SDS011;11608;50.894;5.296;2023-07-31T10:39:58;22.27;;;20.58;;
22881;SDS011;11608;50.894;5.296;2023-07-31T10:42:32;24.02;;;22.17;;
22881;SDS011;11608;50.894;5.296;2023-07-31T10:44:59;22.33;;;20.58;;
22881;SDS011;11608;50.894;5.296;2023-07-31T10:47:28;23.63;;;21.63;;
22881;SDS011;11608;50.894;5.296;2023-07-31T10:52:39;21.90;;;20.17;;
22881;SDS011;11608;50.894;5.296;2023-07-31T10:55:15;22.35;;;20.65;;
22881;SDS011;11608;50.894;5.296;2023-07-31T10:57:46;22.70;;;20.73;;
22881;SDS011;11608;50.894;5.296;2023-07-31T11:03:04;23.70;;;21.60;;
22881;SDS011;11608;50.894;5.296;2023-07-31T11:10:44;23.33;;;21.33;;
22881;SDS011;11608;50.894;5.296;2023-07-31T11:13:11;23.50;;;21.58;;
22881;SDS011;11608;50.894;5.296;2023-07-31T11:15:37;22.55;;;20.95;;
22881;SDS011;11608;50.894;5.296;2023-07-31T11:18:03;23.27;;;21.45;;
22881;SDS011;11608;50.894;5.296;2023-07-31T11:20:35;23.52;;;21.83;;
22881;SDS011;11608;50.894;5.296;2023-07-31T11:23:02;22.60;;;20.88;;
22881;SDS011;11608;50.894;5.296;2023-07-31T11:25:31;22.90;;;21.13;;
22881;SDS011;11608;50.894;5.296;2023-07-31T11:28:08;23.67;;;21.67;;
22881;SDS011;11608;50.894;5.296;2023-07-31T11:30:34;22.20;;;20.50;;
22881;SDS011;11608;50.894;5.296;2023-07-31T11:33:10;23.20;;;21.30;;
22881;SDS011;11608;50.894;5.296;2023-07-31T11:38:32;23.13;;;21.33;;
22881;SDS011;11608;50.894;5.296;2023-07-31T11:40:58;24.02;;;21.88;;
22881;SDS011;11608;50.894;5.296;2023-07-31T11:43:25;23.35;;;21.45;;
22881;SDS011;11608;50.894;5.296;2023-07-31T11:45:52;22.80;;;20.90;;
22881;SDS011;11608;50.894;5.296;2023-07-31T11:48:20;23.23;;;21.33;;
22881;SDS011;11608;50.894;5.296;2023-07-31T11:50:47;24.27;;;22.30;;
22881;SDS011;11608;50.894;5.296;2023-07-31T11:53:17;23.60;;;21.48;;
22881;SDS011;11608;50.894;5.296;2023-07-31T11:55:43;23.60;;;21.80;;
22881;SDS011;11608;50.894;5.296;2023-07-31T11:58:10;23.25;;;21.35;;
22881;SDS011;11608;50.894;5.296;2023-07-31T12:00:36;24.08;;;21.80;;
22881;SDS011;11608;50.894;5.296;2023-07-31T12:03:02;22.85;;;20.95;;
22881;SDS011;11608;50.894;5.296;2023-07-31T12:05:28;23.10;;;21.30;;
22881;SDS011;11608;50.894;5.296;2023-07-31T12:07:55;24.00;;;22.13;;
22881;SDS011;11608;50.894;5.296;2023-07-31T12:10:27;24.30;;;22.40;;
22881;SDS011;11608;50.894;5.296;2023-07-31T12:15:28;22.52;;;20.83;;
22881;SDS011;11608;50.894;5.296;2023-07-31T12:17:57;22.92;;;20.88;;
22881;SDS011;11608;50.894;5.296;2023-07-31T12:20:23;21.88;;;20.13;;
22881;SDS011;11608;50.894;5.296;2023-07-31T12:22:49;22.70;;;20.90;;
22881;SDS011;11608;50.894;5.296;2023-07-31T12:25:15;23.13;;;21.20;;
22881;SDS011;11608;50.894;5.296;2023-07-31T12:27:44;23.35;;;21.45;;
22881;SDS011;11608;50.894;5.296;2023-07-31T12:30:26;22.92;;;21.00;;
22881;SDS011;11608;50.894;5.296;2023-07-31T12:32:53;23.80;;;21.77;;
22881;SDS011;11608;50.894;5.296;2023-07-31T12:35:19;23.05;;;21.40;;
22881;SDS011;11608;50.894;5.296;2023-07-31T12:37:45;23.80;;;21.80;;
22881;SDS011;11608;50.894;5.296;2023-07-31T12:40:13;23.98;;;21.77;;
22881;SDS011;11608;50.894;5.296;2023-07-31T12:42:40;23.38;;;21.38;;
22881;SDS011;11608;50.894;5.296;2023-07-31T12:45:07;22.38;;;20.58;;
22881;SDS011;11608;50.894;5.296;2023-07-31T12:47:33;22.77;;;20.88;;
22881;SDS011;11608;50.894;5.296;2023-07-31T12:49:59;23.55;;;21.75;;
22881;SDS011;11608;50.894;5.296;2023-07-31T12:52:25;22.35;;;20.65;;
22881;SDS011;11608;50.894;5.296;2023-07-31T12:54:53;23.70;;;21.75;;
22881;SDS011;11608;50.894;5.296;2023-07-31T12:57:19;23.70;;;21.73;;
22881;SDS011;11608;50.894;5.296;2023-07-31T12:59:46;23.65;;;21.50;;
22881;SDS011;11608;50.894;5.296;2023-07-31T13:02:12;22.90;;;21.15;;
22881;SDS011;11608;50.894;5.296;2023-07-31T13:04:39;23.13;;;20.85;;
22881;SDS011;11608;50.894;5.296;2023-07-31T13:07:05;22.98;;;21.08;;
22881;SDS011;11608;50.894;5.296;2023-07-31T13:09:31;23.55;;;21.40;;
22881;SDS011;11608;50.894;5.296;2023-07-31T13:11:59;22.35;;;20.52;;
22881;SDS011;11608;50.894;5.296;2023-07-31T13:14:25;22.42;;;20.52;;
22881;SDS011;11608;50.894;5.296;2023-07-31T13:16:51;22.67;;;20.85;;
22881;SDS011;11608;50.894;5.296;2023-07-31T13:19:20;21.73;;;20.02;;
22881;SDS011;11608;50.894;5.296;2023-07-31T13:21:46;22.08;;;20.27;;
22881;SDS011;11608;50.894;5.296;2023-07-31T13:24:12;22.55;;;20.63;;
22881;SDS011;11608;50.894;5.296;2023-07-31T13:26:38;23.90;;;21.90;;
22881;SDS011;11608;50.894;5.296;2023-07-31T13:29:04;23.88;;;21.67;;
22881;SDS011;11608;50.894;5.296;2023-07-31T13:31:30;22.70;;;20.70;;
22881;SDS011;11608;50.894;5.296;2023-07-31T13:33:56;23.17;;;21.10;;
22881;SDS011;11608;50.894;5.296;2023-07-31T13:36:22;23.67;;;21.48;;
22881;SDS011;11608;50.894;5.296;2023-07-31T13:38:49;23.50;;;21.65;;
22881;SDS011;11608;50.894;5.296;2023-07-31T13:41:17;23.30;;;21.30;;
22881;SDS011;11608;50.894;5.296;2023-07-31T13:43:43;23.40;;;21.02;;
22881;SDS011;11608;50.894;5.296;2023-07-31T13:46:09;23.33;;;21.35;;
22881;SDS011;11608;50.894;5.296;2023-07-31T13:48:36;22.45;;;20.63;;
22881;SDS011;11608;50.894;5.296;2023-07-31T13:51:02;22.88;;;20.98;;
22881;SDS011;11608;50.894;5.296;2023-07-31T13:53:28;23.55;;;21.55;;
22881;SDS011;11608;50.894;5.296;2023-07-31T13:55:54;23.73;;;21.65;;
22881;SDS011;11608;50.894;5.296;2023-07-31T13:58:20;23.08;;;21.10;;
22881;SDS011;11608;50.894;5.296;2023-07-31T14:00:49;23.70;;;21.60;;
22881;SDS011;11608;50.894;5.296;2023-07-31T14:03:15;23.30;;;21.20;;
22881;SDS011;11608;50.894;5.296;2023-07-31T14:05:41;22.92;;;21.00;;
22881;SDS011;11608;50.894;5.296;2023-07-31T14:08:07;22.80;;;21.00;;
22881;SDS011;11608;50.894;5.296;2023-07-31T14:10:33;22.35;;;20.48;;
22881;SDS011;11608;50.894;5.296;2023-07-31T14:12:59;23.48;;;21.30;;
22881;SDS011;11608;50.894;5.296;2023-07-31T14:15:25;23.80;;;21.77;;
22881;SDS011;11608;50.894;5.296;2023-07-31T14:17:51;22.50;;;20.70;;
22881;SDS011;11608;50.894;5.296;2023-07-31T14:20:17;22.10;;;20.40;;
22881;SDS011;11608;50.894;5.296;2023-07-31T14:22:43;21.45;;;19.85;;
22881;SDS011;11608;50.894;5.296;2023-07-31T14:25:10;21.55;;;20.05;;
22881;SDS011;11608;50.894;5.296;2023-07-31T14:27:38;22.30;;;20.45;;
22881;SDS011;11608;50.894;5.296;2023-07-31T14:30:04;21.55;;;19.88;;
22881;SDS011;11608;50.894;5.296;2023-07-31T14:32:30;22.70;;;20.80;;
22881;SDS011;11608;50.894;5.296;2023-07-31T14:34:59;23.05;;;21.40;;
22881;SDS011;11608;50.894;5.296;2023-07-31T14:37:25;22.15;;;20.65;;
22881;SDS011;11608;50.894;5.296;2023-07-31T14:39:52;21.83;;;20.30;;
22881;SDS011;11608;50.894;5.296;2023-07-31T14:42:18;22.42;;;20.77;;
22881;SDS011;11608;50.894;5.296;2023-07-31T14:44:44;21.77;;;20.13;;